EGEC/CAL METAR and TAF weather

Enter ICAO airport designator
Station Type Date Time Source
EGEC METAR 2021/05/14 16:20 UTC NOAA

EGEC 141620Z 11014KT 9999 SCT013 BKN024 10/08 Q1007


Station Type Date Time Source
EGEC Decoded METAR 2021/05/14 16:20 UTC NOAA

Campbeltown, United Kingdom (EGEC) 55-26-14N 005-41-11W
May 14, 2021 - 12:20 PM EDT / 2021.05.14 1620 UTC
Wind: from the ESE (110 degrees) at 16 MPH (14 KT):0
Visibility: greater than 7 mile(s):0
Sky conditions: mostly cloudy
Temperature: 50 F (10 C)
Dew Point: 46 F (8 C)
Relative Humidity: 87%
Pressure (altimeter): 29.74 in. Hg (1007 hPa)
ob: EGEC 141620Z 11014KT 9999 SCT013 BKN024 10/08 Q1007
cycle: 16

Station Type Date Time Source
EGEC TAF UTC NOAA

Error!

Example: see airport list